Terminal Aerodrome Forecast
Issued by NWS

Home | Current Version | Previous Version | Text Only | Print | Product List | Glossary On
Versions: 1 2 3 4 5 6 7 8 9 10 11 12 13 14 15 16 17 18 19 20 21
000
FTUS43 KPAH 280520
TAFOWB
TAF
KOWB 280520Z 2806/2906 17005KT P6SM SCT030 BKN060
      TEMPO 2806/2809 BKN030
     FM280900 23004KT P6SM VCSH SCT060 BKN100
     FM281400 26011KT P6SM SCT100
     FM290000 VRB03KT P6SM SKC=

USA.gov is the U.S. government's official web portal to all federal, state and local government web resources and services.